createdAt,value
2022-12-05T00:01:53.205Z,29.57
2022-12-05T00:05:54.663Z,32.53
2022-12-05T00:09:57.661Z,31.33
2022-12-05T00:14:00.623Z,27.73
2022-12-05T00:18:01.984Z,29.87
2022-12-05T00:22:03.463Z,30.80
2022-12-05T00:26:06.791Z,29.33
2022-12-05T00:30:08.849Z,27.87
2022-12-05T00:34:10.519Z,29.97
2022-12-05T00:38:11.957Z,29.40
2022-12-05T00:42:14.750Z,29.27
2022-12-05T00:46:18.062Z,30.77
2022-12-05T00:50:19.630Z,35.00
2022-12-05T00:54:21.097Z,28.00
2022-12-05T00:58:23.896Z,28.57
2022-12-05T01:02:25.295Z,30.63
2022-12-05T01:06:27.843Z,28.23
2022-12-05T01:10:29.241Z,28.93
2022-12-05T01:14:32.080Z,26.00
2022-12-05T01:18:33.543Z,28.57
2022-12-05T01:22:34.923Z,26.93
2022-12-05T01:26:36.884Z,29.60
2022-12-05T01:30:40.548Z,24.97
2022-12-05T01:34:41.950Z,27.17
2022-12-05T01:38:43.574Z,25.07
2022-12-05T01:42:44.978Z,27.20
2022-12-05T01:46:49.267Z,24.87
2022-12-05T01:50:51.065Z,24.87
2022-12-05T01:54:56.568Z,27.50
2022-12-05T01:58:59.424Z,25.73
2022-12-05T02:03:06.745Z,25.50
2022-12-05T02:07:08.126Z,27.37
2022-12-05T02:11:09.796Z,27.33
2022-12-05T02:15:36.058Z,26.57
2022-12-05T02:20:00.234Z,26.33
2022-12-05T02:24:50.192Z,24.57
2022-12-05T02:29:10.892Z,27.97
2022-12-05T02:33:21.067Z,27.17
2022-12-05T02:37:29.596Z,27.53
2022-12-05T02:41:34.544Z,23.63
2022-12-05T02:45:38.544Z,23.63
2022-12-05T02:49:42.835Z,25.63
2022-12-05T02:53:45.490Z,25.97
2022-12-05T02:57:52.428Z,23.53
2022-12-05T03:01:53.927Z,24.67
2022-12-05T03:06:02.870Z,24.60
2022-12-05T03:10:07.865Z,23.70
2022-12-05T03:14:16.500Z,25.40
2022-12-05T03:18:24.025Z,27.57
2022-12-05T03:22:32.219Z,21.83
2022-12-05T03:26:44.571Z,24.20
2022-12-05T03:30:51.971Z,22.40
2022-12-05T03:35:03.468Z,22.70
2022-12-05T03:39:13.076Z,25.43
2022-12-05T03:43:22.436Z,21.13
2022-12-05T03:47:33.101Z,20.90
2022-12-05T03:51:42.318Z,20.43
2022-12-05T03:55:48.907Z,20.17
2022-12-05T03:59:55.730Z,23.23
2022-12-05T04:04:03.040Z,22.17
2022-12-05T04:08:07.100Z,22.33
2022-12-05T04:12:14.992Z,22.43
2022-12-05T04:16:20.243Z,24.23
2022-12-05T04:20:27.369Z,21.60
2022-12-05T04:24:31.675Z,19.60
2022-12-05T04:28:39.175Z,18.03
2022-12-05T04:32:45.993Z,18.70
2022-12-05T04:36:54.501Z,21.53
2022-12-05T04:41:00.379Z,16.80
2022-12-05T04:45:08.041Z,18.63
2022-12-05T04:49:13.878Z,18.23
2022-12-05T04:53:19.106Z,22.03
2022-12-05T04:57:25.392Z,21.10
2022-12-05T05:01:34.964Z,20.77
2022-12-05T05:05:38.252Z,18.97
2022-12-05T05:09:40.422Z,19.67
2022-12-05T05:13:44.084Z,21.53
2022-12-05T05:17:46.773Z,17.50
2022-12-05T05:21:48.158Z,20.40
2022-12-05T05:25:52.847Z,16.37
2022-12-05T05:29:54.192Z,16.30
2022-12-05T05:33:57.473Z,19.67
2022-12-05T05:37:58.823Z,18.70
2022-12-05T05:42:00.212Z,18.27
2022-12-05T05:46:03.378Z,20.23
2022-12-05T05:50:08.060Z,17.93
2022-12-05T05:54:09.798Z,17.90
2022-12-05T05:58:11.106Z,15.23
2022-12-05T06:02:12.445Z,18.93
2022-12-05T06:06:15.420Z,17.33
2022-12-05T06:10:16.764Z,15.43
2022-12-05T06:14:18.126Z,15.10
2022-12-05T06:18:19.456Z,14.83
2022-12-05T06:22:22.143Z,19.53
2022-12-05T06:26:23.553Z,14.83
2022-12-05T06:30:24.914Z,16.43
2022-12-05T06:34:26.242Z,16.03
2022-12-05T06:38:28.915Z,14.93
2022-12-05T06:42:31.305Z,17.93
2022-12-05T06:46:32.632Z,15.97
2022-12-05T06:50:33.956Z,14.50
2022-12-05T06:54:36.708Z,13.87
2022-12-05T06:58:38.368Z,18.23
2022-12-05T07:02:39.735Z,15.77
2022-12-05T07:06:46.117Z,15.97
2022-12-05T07:10:52.441Z,13.33
2022-12-05T07:14:53.784Z,22.50
2022-12-05T07:18:55.456Z,19.47
2022-12-05T07:22:56.748Z,15.43
2022-12-05T07:26:59.422Z,14.13
2022-12-05T07:31:01.449Z,14.00
2022-12-05T07:35:02.977Z,15.97
2022-12-05T07:39:04.653Z,15.00
2022-12-05T07:43:07.385Z,14.53
2022-12-05T07:47:08.733Z,13.97
2022-12-05T07:51:10.624Z,16.90
2022-12-05T07:55:11.936Z,14.70
2022-12-05T07:59:22.656Z,13.43
2022-12-05T08:03:24.251Z,14.80
2022-12-05T08:07:25.638Z,16.07
2022-12-05T08:11:29.865Z,15.13
2022-12-05T08:15:34.437Z,13.87
2022-12-05T08:19:36.082Z,14.33
2022-12-05T08:23:38.974Z,15.20
2022-12-05T08:27:40.395Z,19.80
2022-12-05T08:31:45.433Z,20.60
2022-12-05T08:35:46.786Z,15.80
2022-12-05T08:39:48.178Z,17.90
2022-12-05T08:43:49.504Z,15.77
2022-12-05T08:47:52.196Z,15.10
2022-12-05T08:51:53.620Z,14.53
2022-12-05T08:55:55.990Z,13.47
2022-12-05T08:59:57.358Z,12.73
2022-12-05T09:04:00.943Z,12.53
2022-12-05T09:08:02.342Z,13.00
2022-12-05T09:12:04.133Z,13.23
2022-12-05T09:16:07.091Z,11.10
2022-12-05T09:20:10.948Z,13.47
2022-12-05T09:24:13.900Z,12.03
2022-12-05T09:28:15.215Z,14.50
2022-12-05T09:32:16.526Z,20.63
2022-12-05T09:36:20.884Z,17.33
2022-12-05T09:40:22.407Z,16.63
2022-12-05T09:44:38.956Z,19.17
2022-12-05T09:48:40.642Z,22.77
2022-12-05T09:52:52.993Z,21.43
2022-12-05T09:56:54.846Z,17.80
2022-12-05T10:01:02.907Z,16.67
2022-12-05T10:05:10.914Z,14.77
2022-12-05T10:09:30.566Z,18.47
2022-12-05T10:13:45.164Z,15.57
2022-12-05T10:17:50.101Z,15.27
2022-12-05T10:21:55.923Z,15.33
2022-12-05T10:26:04.252Z,12.30
2022-12-05T10:30:14.304Z,12.10
2022-12-05T10:34:24.975Z,11.33
2022-12-05T10:38:29.756Z,11.43
2022-12-05T10:42:35.765Z,14.33
2022-12-05T10:46:37.243Z,19.10
2022-12-05T10:50:39.956Z,14.03
2022-12-05T10:54:46.972Z,16.27
2022-12-05T10:58:57.721Z,16.60
2022-12-05T11:03:03.598Z,17.53
2022-12-05T11:07:05.623Z,34.37
2022-12-05T11:11:17.875Z,16.07
2022-12-05T11:15:23.809Z,16.47
2022-12-05T11:19:27.614Z,17.43
2022-12-05T11:23:29.991Z,17.83
2022-12-05T11:27:32.189Z,16.00
2022-12-05T11:31:34.992Z,17.27
2022-12-05T11:35:37.705Z,16.83
2022-12-05T11:39:39.536Z,21.13
2022-12-05T11:44:05.292Z,21.77
2022-12-05T11:48:31.142Z,17.07
2022-12-05T11:52:43.511Z,18.03
2022-12-05T11:56:51.878Z,17.40
2022-12-05T12:01:04.752Z,17.53
2022-12-05T12:05:17.820Z,18.47
2022-12-05T12:09:31.911Z,19.23
2022-12-05T12:13:51.490Z,21.13
2022-12-05T12:18:01.691Z,22.07
2022-12-05T12:22:24.491Z,20.77
2022-12-05T12:26:36.737Z,21.40
2022-12-05T12:30:58.262Z,19.93
2022-12-05T12:35:17.342Z,17.90
2022-12-05T12:39:38.454Z,15.97
2022-12-05T12:43:55.103Z,14.43
2022-12-05T12:48:09.417Z,14.47
2022-12-05T12:52:14.610Z,14.03
2022-12-05T12:56:28.779Z,13.63
2022-12-05T13:00:42.793Z,13.43
2022-12-05T13:09:27.066Z,11.73
2022-12-05T13:13:34.183Z,13.60
2022-12-05T13:17:38.121Z,12.67
2022-12-05T13:21:39.632Z,13.43
2022-12-05T13:25:43.816Z,10.80
2022-12-05T13:29:52.447Z,12.57
2022-12-05T13:33:53.787Z,12.77
2022-12-05T13:37:55.263Z,14.33
2022-12-05T13:41:57.628Z,12.47
2022-12-05T13:46:06.645Z,12.40
2022-12-05T13:50:13.972Z,14.23
2022-12-05T13:54:19.796Z,14.00
2022-12-05T13:58:41.919Z,14.70
2022-12-05T14:02:50.127Z,14.07
2022-12-05T14:06:58.341Z,16.17
2022-12-05T14:11:11.257Z,13.93
2022-12-05T14:15:39.769Z,13.40
2022-12-05T14:20:07.124Z,14.27
2022-12-05T14:24:19.158Z,15.93
2022-12-05T14:28:41.513Z,15.03
2022-12-05T14:32:43.423Z,14.83
2022-12-05T14:36:55.308Z,15.03
2022-12-05T14:41:10.988Z,15.90
2022-12-05T14:45:26.788Z,15.00
2022-12-05T14:49:49.132Z,16.23
2022-12-05T14:53:52.013Z,17.87
2022-12-05T14:57:53.616Z,15.23
2022-12-05T15:01:56.735Z,16.10
2022-12-05T15:06:03.840Z,14.30
2022-12-05T15:10:13.832Z,15.77
2022-12-05T15:14:19.508Z,14.53
2022-12-05T15:18:28.270Z,14.80
2022-12-05T15:22:34.282Z,14.57
2022-12-05T15:26:48.228Z,13.60
2022-12-05T15:30:55.930Z,16.90
2022-12-05T15:35:01.649Z,15.27
2022-12-05T15:39:16.756Z,15.20
2022-12-05T15:43:30.866Z,13.77
2022-12-05T15:47:32.205Z,14.00
2022-12-05T15:51:37.646Z,16.00
2022-12-05T15:55:43.328Z,15.47
2022-12-05T15:59:50.376Z,14.13
2022-12-05T16:03:56.132Z,13.37
2022-12-05T16:07:57.716Z,12.70
2022-12-05T16:12:01.728Z,13.97
2022-12-05T16:16:05.888Z,13.53
2022-12-05T16:20:12.152Z,13.47
2022-12-05T16:24:18.537Z,12.77
2022-12-05T16:28:21.376Z,11.07
2022-12-05T16:32:25.338Z,9.53
2022-12-05T16:36:26.686Z,11.50
2022-12-05T16:40:28.072Z,10.40
2022-12-05T16:45:00.897Z,10.03
2022-12-05T16:49:24.394Z,10.87
2022-12-05T16:53:31.625Z,11.60
2022-12-05T16:57:33.018Z,13.53
2022-12-05T17:01:38.928Z,12.27
2022-12-05T17:05:42.072Z,11.90
2022-12-05T17:09:43.507Z,15.00
2022-12-05T17:13:45.537Z,13.13
2022-12-05T17:17:46.911Z,13.63
2022-12-05T17:21:49.660Z,12.17
2022-12-05T17:25:53.006Z,11.53
2022-12-05T17:29:54.378Z,11.90
2022-12-05T17:33:55.709Z,14.13
2022-12-05T17:37:58.479Z,9.53
2022-12-05T17:41:59.826Z,13.23
2022-12-05T17:46:02.304Z,9.87
2022-12-05T17:50:04.229Z,6.50
2022-12-05T17:54:06.978Z,7.90
2022-12-05T17:58:08.423Z,8.83
2022-12-05T18:02:10.630Z,7.20
2022-12-05T18:06:12.052Z,8.13
2022-12-05T18:10:17.217Z,7.83
2022-12-05T18:14:18.674Z,8.20
2022-12-05T18:18:20.085Z,10.77
2022-12-05T18:22:21.915Z,10.47
2022-12-05T18:26:24.645Z,11.43
2022-12-05T18:30:26.067Z,10.27
2022-12-05T18:34:27.416Z,10.37
2022-12-05T18:38:28.741Z,9.23
2022-12-05T18:42:31.472Z,10.93
2022-12-05T18:46:33.050Z,12.90
2022-12-05T18:50:34.427Z,15.00
2022-12-05T18:54:35.807Z,15.37
2022-12-05T18:58:38.558Z,14.37
2022-12-05T19:02:42.745Z,16.93
2022-12-05T19:06:47.975Z,12.70
2022-12-05T19:10:49.380Z,12.60
2022-12-05T19:14:52.129Z,15.60
2022-12-05T19:18:55.325Z,15.33
2022-12-05T19:23:00.917Z,15.43
2022-12-05T19:27:02.608Z,15.17
2022-12-05T19:31:07.908Z,15.57
2022-12-05T19:35:09.248Z,18.10
2022-12-05T19:39:14.121Z,16.80
2022-12-05T19:43:15.571Z,17.07
2022-12-05T19:47:18.268Z,17.17
2022-12-05T19:51:20.255Z,17.33
2022-12-05T19:55:21.725Z,15.97
2022-12-05T19:59:23.069Z,18.43
2022-12-05T20:03:25.784Z,17.50
2022-12-05T20:07:27.202Z,18.33
2022-12-05T20:11:29.027Z,15.20
2022-12-05T20:15:30.452Z,15.20
2022-12-05T20:19:33.312Z,15.43
2022-12-05T20:23:34.913Z,14.87
2022-12-05T20:27:36.239Z,14.80
2022-12-05T20:31:39.871Z,17.03
2022-12-05T20:35:42.563Z,13.80
2022-12-05T20:39:43.910Z,14.83
2022-12-05T20:43:47.041Z,12.70
2022-12-05T20:47:48.474Z,14.13
2022-12-05T20:51:51.269Z,15.63
2022-12-05T20:55:54.680Z,10.90
2022-12-05T20:59:56.128Z,12.33
2022-12-05T21:03:57.639Z,10.57
2022-12-05T21:08:00.510Z,11.47
2022-12-05T21:12:02.418Z,12.63
2022-12-05T21:16:05.331Z,14.30
2022-12-05T21:20:07.992Z,9.90
2022-12-05T21:24:10.808Z,11.47
2022-12-05T21:28:12.349Z,11.97
2022-12-05T21:32:13.978Z,15.33
2022-12-05T21:36:15.963Z,10.90
2022-12-05T21:40:18.682Z,12.17
2022-12-05T21:44:20.156Z,8.87
2022-12-05T21:48:23.456Z,9.03
2022-12-05T21:52:24.812Z,9.97
2022-12-05T21:56:27.800Z,7.90
2022-12-05T22:00:29.254Z,10.53
2022-12-05T22:04:30.693Z,7.90
2022-12-05T22:08:33.078Z,10.57
2022-12-05T22:12:36.102Z,12.17
2022-12-05T22:16:37.512Z,10.13
2022-12-05T22:20:38.937Z,7.80
2022-12-05T22:24:40.357Z,8.73
2022-12-05T22:28:43.782Z,10.23
2022-12-05T22:32:45.139Z,8.73
2022-12-05T22:36:47.965Z,7.87
2022-12-05T22:40:53.418Z,9.50
2022-12-05T22:44:56.206Z,6.23
2022-12-05T22:48:57.666Z,8.43
2022-12-05T22:52:59.131Z,15.10
2022-12-05T22:57:00.595Z,8.70
2022-12-05T23:01:11.486Z,9.03
2022-12-05T23:05:13.045Z,9.40
2022-12-05T23:09:14.525Z,8.17
2022-12-05T23:13:16.105Z,8.67
2022-12-05T23:17:18.861Z,6.87
2022-12-05T23:21:22.505Z,6.87
2022-12-05T23:25:24.062Z,9.10
2022-12-05T23:29:25.430Z,11.43
2022-12-05T23:33:28.324Z,9.80
2022-12-05T23:37:29.865Z,7.73
2022-12-05T23:41:31.535Z,8.03
2022-12-05T23:45:32.932Z,7.97
2022-12-05T23:49:35.904Z,8.27
2022-12-05T23:53:39.934Z,10.10
2022-12-05T23:57:41.369Z,12.17
